sensor_id;sensor_type;location;lat;lon;timestamp;temperature;humidity
20384;DHT22;46458;50.966;7.002;2023-07-22T00:02:13;17.60;99.90
20384;DHT22;46458;50.966;7.002;2023-07-22T00:04:43;17.30;99.90
20384;DHT22;46458;50.966;7.002;2023-07-22T00:07:12;17.20;99.90
20384;DHT22;46458;50.966;7.002;2023-07-22T00:09:53;17.10;99.90
20384;DHT22;46458;50.966;7.002;2023-07-22T00:12:21;16.60;99.90
20384;DHT22;46458;50.966;7.002;2023-07-22T00:14:51;16.90;99.90
20384;DHT22;46458;50.966;7.002;2023-07-22T00:17:21;16.90;99.90
20384;DHT22;46458;50.966;7.002;2023-07-22T00:19:50;16.70;99.90
20384;DHT22;46458;50.966;7.002;2023-07-22T00:22:21;16.90;99.90
20384;DHT22;46458;50.966;7.002;2023-07-22T00:24:55;16.90;99.90
20384;DHT22;46458;50.966;7.002;2023-07-22T00:27:25;17.00;99.90
20384;DHT22;46458;50.966;7.002;2023-07-22T00:29:57;17.00;99.90
20384;DHT22;46458;50.966;7.002;2023-07-22T00:32:29;17.00;99.90
20384;DHT22;46458;50.966;7.002;2023-07-22T00:34:58;16.70;99.90
20384;DHT22;46458;50.966;7.002;2023-07-22T00:37:26;17.10;99.90
20384;DHT22;46458;50.966;7.002;2023-07-22T00:39:58;17.20;99.90
20384;DHT22;46458;50.966;7.002;2023-07-22T00:42:27;17.20;99.90
20384;DHT22;46458;50.966;7.002;2023-07-22T00:44:57;17.30;99.90
20384;DHT22;46458;50.966;7.002;2023-07-22T00:47:26;17.00;99.90
20384;DHT22;46458;50.966;7.002;2023-07-22T00:49:56;16.80;99.90
20384;DHT22;46458;50.966;7.002;2023-07-22T00:52:25;16.80;99.90
20384;DHT22;46458;50.966;7.002;2023-07-22T00:54:56;16.80;99.90
20384;DHT22;46458;50.966;7.002;2023-07-22T00:57:28;16.80;99.90
20384;DHT22;46458;50.966;7.002;2023-07-22T01:00:00;17.00;99.90
20384;DHT22;46458;50.966;7.002;2023-07-22T01:02:31;16.70;99.90
20384;DHT22;46458;50.966;7.002;2023-07-22T01:05:00;16.80;99.90
20384;DHT22;46458;50.966;7.002;2023-07-22T01:07:31;16.60;99.90
20384;DHT22;46458;50.966;7.002;2023-07-22T01:10:03;16.80;99.90
20384;DHT22;46458;50.966;7.002;2023-07-22T01:12:33;16.70;99.90
20384;DHT22;46458;50.966;7.002;2023-07-22T01:15:03;16.70;99.90
20384;DHT22;46458;50.966;7.002;2023-07-22T01:17:37;16.50;99.90
20384;DHT22;46458;50.966;7.002;2023-07-22T01:20:07;16.50;99.90
20384;DHT22;46458;50.966;7.002;2023-07-22T01:22:36;16.40;99.90
20384;DHT22;46458;50.966;7.002;2023-07-22T01:25:08;16.50;99.90
20384;DHT22;46458;50.966;7.002;2023-07-22T01:27:37;16.40;99.90
20384;DHT22;46458;50.966;7.002;2023-07-22T01:30:07;16.50;99.90
20384;DHT22;46458;50.966;7.002;2023-07-22T01:32:36;16.40;99.90
20384;DHT22;46458;50.966;7.002;2023-07-22T01:35:06;16.30;99.90
20384;DHT22;46458;50.966;7.002;2023-07-22T01:37:36;16.10;99.90
20384;DHT22;46458;50.966;7.002;2023-07-22T01:40:09;16.20;99.90
20384;DHT22;46458;50.966;7.002;2023-07-22T01:42:41;15.90;99.90
20384;DHT22;46458;50.966;7.002;2023-07-22T01:45:10;15.90;99.90
20384;DHT22;46458;50.966;7.002;2023-07-22T01:47:39;15.80;99.90
20384;DHT22;46458;50.966;7.002;2023-07-22T01:50:09;15.90;99.90
20384;DHT22;46458;50.966;7.002;2023-07-22T01:52:38;15.80;99.90
20384;DHT22;46458;50.966;7.002;2023-07-22T01:55:10;16.00;99.90
20384;DHT22;46458;50.966;7.002;2023-07-22T01:57:39;15.70;99.90
20384;DHT22;46458;50.966;7.002;2023-07-22T02:00:09;15.70;99.90
20384;DHT22;46458;50.966;7.002;2023-07-22T02:02:41;15.50;99.90
20384;DHT22;46458;50.966;7.002;2023-07-22T02:05:10;15.70;99.90
20384;DHT22;46458;50.966;7.002;2023-07-22T02:07:39;15.80;99.90
20384;DHT22;46458;50.966;7.002;2023-07-22T02:10:11;15.90;99.90
20384;DHT22;46458;50.966;7.002;2023-07-22T02:12:42;15.80;99.90
20384;DHT22;46458;50.966;7.002;2023-07-22T02:15:15;16.00;99.90
20384;DHT22;46458;50.966;7.002;2023-07-22T02:17:44;16.00;99.90
20384;DHT22;46458;50.966;7.002;2023-07-22T02:20:14;16.00;99.90
20384;DHT22;46458;50.966;7.002;2023-07-22T02:22:43;16.00;99.90
20384;DHT22;46458;50.966;7.002;2023-07-22T02:25:14;15.80;99.90
20384;DHT22;46458;50.966;7.002;2023-07-22T02:27:43;15.80;99.90
20384;DHT22;46458;50.966;7.002;2023-07-22T02:30:14;15.70;99.90
20384;DHT22;46458;50.966;7.002;2023-07-22T02:32:46;15.80;99.90
20384;DHT22;46458;50.966;7.002;2023-07-22T02:35:15;15.70;99.90
20384;DHT22;46458;50.966;7.002;2023-07-22T02:37:47;15.70;99.90
20384;DHT22;46458;50.966;7.002;2023-07-22T02:40:23;15.60;99.90
20384;DHT22;46458;50.966;7.002;2023-07-22T02:43:00;15.40;99.90
20384;DHT22;46458;50.966;7.002;2023-07-22T02:45:29;15.30;99.90
20384;DHT22;46458;50.966;7.002;2023-07-22T02:47:58;15.50;99.90
20384;DHT22;46458;50.966;7.002;2023-07-22T02:50:27;15.50;99.90
20384;DHT22;46458;50.966;7.002;2023-07-22T02:52:56;15.50;99.90
20384;DHT22;46458;50.966;7.002;2023-07-22T02:55:30;15.40;99.90
20384;DHT22;46458;50.966;7.002;2023-07-22T02:57:59;15.60;99.90
20384;DHT22;46458;50.966;7.002;2023-07-22T03:00:30;15.50;99.90
20384;DHT22;46458;50.966;7.002;2023-07-22T03:03:00;15.50;99.90
20384;DHT22;46458;50.966;7.002;2023-07-22T03:05:31;15.60;99.90
20384;DHT22;46458;50.966;7.002;2023-07-22T03:08:00;15.70;99.90
20384;DHT22;46458;50.966;7.002;2023-07-22T03:10:32;15.60;99.90
20384;DHT22;46458;50.966;7.002;2023-07-22T03:13:01;15.60;99.90
20384;DHT22;46458;50.966;7.002;2023-07-22T03:15:30;15.50;99.90
20384;DHT22;46458;50.966;7.002;2023-07-22T03:17:59;15.70;99.90
20384;DHT22;46458;50.966;7.002;2023-07-22T03:20:28;15.70;99.90
20384;DHT22;46458;50.966;7.002;2023-07-22T03:22:57;15.40;99.90
20384;DHT22;46458;50.966;7.002;2023-07-22T03:25:31;15.50;99.90
20384;DHT22;46458;50.966;7.002;2023-07-22T03:28:03;15.70;99.90
20384;DHT22;46458;50.966;7.002;2023-07-22T03:30:32;15.80;99.90
20384;DHT22;46458;50.966;7.002;2023-07-22T03:33:01;15.70;99.90
20384;DHT22;46458;50.966;7.002;2023-07-22T03:35:32;15.60;99.90
20384;DHT22;46458;50.966;7.002;2023-07-22T03:38:07;15.70;99.90
20384;DHT22;46458;50.966;7.002;2023-07-22T03:40:38;15.60;99.90
20384;DHT22;46458;50.966;7.002;2023-07-22T03:43:07;15.60;99.90
20384;DHT22;46458;50.966;7.002;2023-07-22T03:45:39;15.60;99.90
20384;DHT22;46458;50.966;7.002;2023-07-22T03:48:10;15.50;99.90
20384;DHT22;46458;50.966;7.002;2023-07-22T03:50:39;15.40;99.90
20384;DHT22;46458;50.966;7.002;2023-07-22T03:53:08;15.50;99.90
20384;DHT22;46458;50.966;7.002;2023-07-22T03:55:40;15.50;99.90
20384;DHT22;46458;50.966;7.002;2023-07-22T03:58:09;15.50;99.90
20384;DHT22;46458;50.966;7.002;2023-07-22T04:00:40;15.70;99.90
20384;DHT22;46458;50.966;7.002;2023-07-22T04:03:09;15.50;99.90
20384;DHT22;46458;50.966;7.002;2023-07-22T04:05:41;15.60;99.90
20384;DHT22;46458;50.966;7.002;2023-07-22T04:08:12;16.00;99.90
20384;DHT22;46458;50.966;7.002;2023-07-22T04:10:53;15.60;99.90
20384;DHT22;46458;50.966;7.002;2023-07-22T04:13:24;15.70;99.90
20384;DHT22;46458;50.966;7.002;2023-07-22T04:15:53;15.60;99.90
20384;DHT22;46458;50.966;7.002;2023-07-22T04:18:22;15.60;99.90
20384;DHT22;46458;50.966;7.002;2023-07-22T04:20:56;15.50;99.90
20384;DHT22;46458;50.966;7.002;2023-07-22T04:23:25;15.50;99.90
20384;DHT22;46458;50.966;7.002;2023-07-22T04:25:57;15.50;99.90
20384;DHT22;46458;50.966;7.002;2023-07-22T04:28:28;15.50;99.90
20384;DHT22;46458;50.966;7.002;2023-07-22T04:31:04;15.50;99.90
20384;DHT22;46458;50.966;7.002;2023-07-22T04:33:35;16.00;99.90
20384;DHT22;46458;50.966;7.002;2023-07-22T04:36:04;15.60;99.90
20384;DHT22;46458;50.966;7.002;2023-07-22T04:38:37;15.40;99.90
20384;DHT22;46458;50.966;7.002;2023-07-22T04:41:08;15.30;99.90
20384;DHT22;46458;50.966;7.002;2023-07-22T04:43:37;15.50;99.90
20384;DHT22;46458;50.966;7.002;2023-07-22T04:46:07;15.50;99.90
20384;DHT22;46458;50.966;7.002;2023-07-22T04:48:35;15.40;99.90
20384;DHT22;46458;50.966;7.002;2023-07-22T04:51:05;15.30;99.90
20384;DHT22;46458;50.966;7.002;2023-07-22T04:53:34;15.40;99.90
20384;DHT22;46458;50.966;7.002;2023-07-22T04:56:03;15.40;99.90
20384;DHT22;46458;50.966;7.002;2023-07-22T04:58:35;15.30;99.90
20384;DHT22;46458;50.966;7.002;2023-07-22T05:01:07;15.60;99.90
20384;DHT22;46458;50.966;7.002;2023-07-22T05:03:37;15.60;99.90
20384;DHT22;46458;50.966;7.002;2023-07-22T05:06:06;15.30;99.90
20384;DHT22;46458;50.966;7.002;2023-07-22T05:08:35;15.20;99.90
20384;DHT22;46458;50.966;7.002;2023-07-22T05:11:07;15.50;99.90
20384;DHT22;46458;50.966;7.002;2023-07-22T05:13:38;15.50;99.90
20384;DHT22;46458;50.966;7.002;2023-07-22T05:16:07;15.40;99.90
20384;DHT22;46458;50.966;7.002;2023-07-22T05:18:36;15.50;99.90
20384;DHT22;46458;50.966;7.002;2023-07-22T05:21:05;15.40;99.90
20384;DHT22;46458;50.966;7.002;2023-07-22T05:23:34;15.30;99.90
20384;DHT22;46458;50.966;7.002;2023-07-22T05:26:02;15.60;99.90
20384;DHT22;46458;50.966;7.002;2023-07-22T05:28:31;15.30;99.90
20384;DHT22;46458;50.966;7.002;2023-07-22T05:31:03;15.40;99.90
20384;DHT22;46458;50.966;7.002;2023-07-22T05:33:32;15.50;99.90
20384;DHT22;46458;50.966;7.002;2023-07-22T05:36:05;15.60;99.90
20384;DHT22;46458;50.966;7.002;2023-07-22T05:38:33;15.80;99.90
20384;DHT22;46458;50.966;7.002;2023-07-22T05:41:02;15.80;99.90
20384;DHT22;46458;50.966;7.002;2023-07-22T05:43:31;15.80;99.90
20384;DHT22;46458;50.966;7.002;2023-07-22T05:46:03;16.00;99.90
20384;DHT22;46458;50.966;7.002;2023-07-22T05:48:38;15.90;99.90
20384;DHT22;46458;50.966;7.002;2023-07-22T05:51:07;15.90;99.90
20384;DHT22;46458;50.966;7.002;2023-07-22T05:53:35;16.10;99.90
20384;DHT22;46458;50.966;7.002;2023-07-22T05:56:05;16.10;99.90
20384;DHT22;46458;50.966;7.002;2023-07-22T05:58:34;16.10;99.90
20384;DHT22;46458;50.966;7.002;2023-07-22T06:01:06;16.20;99.90
20384;DHT22;46458;50.966;7.002;2023-07-22T06:03:35;16.30;99.90
20384;DHT22;46458;50.966;7.002;2023-07-22T06:06:04;16.20;99.90
20384;DHT22;46458;50.966;7.002;2023-07-22T06:08:33;16.30;99.90
20384;DHT22;46458;50.966;7.002;2023-07-22T06:11:01;16.40;99.90
20384;DHT22;46458;50.966;7.002;2023-07-22T06:13:30;16.40;99.90
20384;DHT22;46458;50.966;7.002;2023-07-22T06:15:59;16.60;99.90
20384;DHT22;46458;50.966;7.002;2023-07-22T06:18:31;16.30;99.90
20384;DHT22;46458;50.966;7.002;2023-07-22T06:21:00;16.60;99.90
20384;DHT22;46458;50.966;7.002;2023-07-22T06:23:29;16.40;99.90
20384;DHT22;46458;50.966;7.002;2023-07-22T06:25:58;16.30;99.90
20384;DHT22;46458;50.966;7.002;2023-07-22T06:28:27;16.20;99.90
20384;DHT22;46458;50.966;7.002;2023-07-22T06:30:57;16.40;99.90
20384;DHT22;46458;50.966;7.002;2023-07-22T06:33:26;16.30;99.90
20384;DHT22;46458;50.966;7.002;2023-07-22T06:35:58;16.40;99.90
20384;DHT22;46458;50.966;7.002;2023-07-22T06:38:28;16.70;99.90
20384;DHT22;46458;50.966;7.002;2023-07-22T06:40:56;16.90;99.90
20384;DHT22;46458;50.966;7.002;2023-07-22T06:43:26;16.70;99.90
20384;DHT22;46458;50.966;7.002;2023-07-22T06:45:57;16.90;99.90
20384;DHT22;46458;50.966;7.002;2023-07-22T06:48:26;17.00;99.90
20384;DHT22;46458;50.966;7.002;2023-07-22T06:50:58;17.10;99.90
20384;DHT22;46458;50.966;7.002;2023-07-22T06:53:26;17.00;99.90
20384;DHT22;46458;50.966;7.002;2023-07-22T06:55:57;17.50;99.90
20384;DHT22;46458;50.966;7.002;2023-07-22T06:58:25;17.40;99.90
20384;DHT22;46458;50.966;7.002;2023-07-22T07:00:55;17.40;99.90
20384;DHT22;46458;50.966;7.002;2023-07-22T07:03:24;17.30;99.90
20384;DHT22;46458;50.966;7.002;2023-07-22T07:05:53;17.60;99.90
20384;DHT22;46458;50.966;7.002;2023-07-22T07:08:25;17.30;99.90
20384;DHT22;46458;50.966;7.002;2023-07-22T07:10:54;17.70;99.90
20384;DHT22;46458;50.966;7.002;2023-07-22T07:13:23;17.70;99.90
20384;DHT22;46458;50.966;7.002;2023-07-22T07:15:52;17.90;99.90
20384;DHT22;46458;50.966;7.002;2023-07-22T07:18:21;18.00;99.90
20384;DHT22;46458;50.966;7.002;2023-07-22T07:20:50;18.20;99.90
20384;DHT22;46458;50.966;7.002;2023-07-22T07:23:19;18.20;99.90
20384;DHT22;46458;50.966;7.002;2023-07-22T07:25:50;18.20;99.90
20384;DHT22;46458;50.966;7.002;2023-07-22T07:28:19;18.30;99.90
20384;DHT22;46458;50.966;7.002;2023-07-22T07:30:48;18.30;99.90
20384;DHT22;46458;50.966;7.002;2023-07-22T07:33:17;18.30;99.90
20384;DHT22;46458;50.966;7.002;2023-07-22T07:35:46;18.30;99.90
20384;DHT22;46458;50.966;7.002;2023-07-22T07:38:15;18.20;99.90
20384;DHT22;46458;50.966;7.002;2023-07-22T07:40:44;18.30;99.90
20384;DHT22;46458;50.966;7.002;2023-07-22T07:43:16;18.30;99.90
20384;DHT22;46458;50.966;7.002;2023-07-22T07:45:47;18.30;99.90
20384;DHT22;46458;50.966;7.002;2023-07-22T07:48:16;18.30;99.90
20384;DHT22;46458;50.966;7.002;2023-07-22T07:50:45;18.50;99.90
20384;DHT22;46458;50.966;7.002;2023-07-22T07:53:14;18.60;99.90
20384;DHT22;46458;50.966;7.002;2023-07-22T07:55:43;18.70;99.90
20384;DHT22;46458;50.966;7.002;2023-07-22T07:58:14;18.60;99.90
20384;DHT22;46458;50.966;7.002;2023-07-22T08:00:43;18.60;99.90
20384;DHT22;46458;50.966;7.002;2023-07-22T08:03:13;18.70;99.90
20384;DHT22;46458;50.966;7.002;2023-07-22T08:05:41;18.80;99.90
20384;DHT22;46458;50.966;7.002;2023-07-22T08:08:10;18.60;99.90
20384;DHT22;46458;50.966;7.002;2023-07-22T08:10:39;18.60;99.90
20384;DHT22;46458;50.966;7.002;2023-07-22T08:13:10;18.70;99.90
20384;DHT22;46458;50.966;7.002;2023-07-22T08:15:41;18.90;99.90
20384;DHT22;46458;50.966;7.002;2023-07-22T08:18:10;19.10;99.90
20384;DHT22;46458;50.966;7.002;2023-07-22T08:20:39;19.10;99.90
20384;DHT22;46458;50.966;7.002;2023-07-22T08:23:08;19.30;99.90
20384;DHT22;46458;50.966;7.002;2023-07-22T08:25:37;19.50;99.90
20384;DHT22;46458;50.966;7.002;2023-07-22T08:28:06;19.60;99.90
20384;DHT22;46458;50.966;7.002;2023-07-22T08:30:35;19.70;99.90
20384;DHT22;46458;50.966;7.002;2023-07-22T08:33:08;19.60;99.90
20384;DHT22;46458;50.966;7.002;2023-07-22T08:35:37;19.80;99.90
20384;DHT22;46458;50.966;7.002;2023-07-22T08:38:07;20.10;99.90
20384;DHT22;46458;50.966;7.002;2023-07-22T08:40:40;20.10;99.90
20384;DHT22;46458;50.966;7.002;2023-07-22T08:43:10;20.30;99.90
20384;DHT22;46458;50.966;7.002;2023-07-22T08:45:41;20.30;99.90
20384;DHT22;46458;50.966;7.002;2023-07-22T08:48:16;20.10;99.90
20384;DHT22;46458;50.966;7.002;2023-07-22T08:50:49;20.10;99.90
20384;DHT22;46458;50.966;7.002;2023-07-22T08:53:21;20.10;99.90
20384;DHT22;46458;50.966;7.002;2023-07-22T08:55:51;20.30;99.90
20384;DHT22;46458;50.966;7.002;2023-07-22T08:58:20;20.50;99.90
20384;DHT22;46458;50.966;7.002;2023-07-22T09:00:54;20.30;99.90
20384;DHT22;46458;50.966;7.002;2023-07-22T09:03:26;20.30;99.90
20384;DHT22;46458;50.966;7.002;2023-07-22T09:05:55;20.20;99.90
20384;DHT22;46458;50.966;7.002;2023-07-22T09:08:27;20.30;99.90
20384;DHT22;46458;50.966;7.002;2023-07-22T09:10:56;20.60;99.90
20384;DHT22;46458;50.966;7.002;2023-07-22T09:13:26;20.90;99.90
20384;DHT22;46458;50.966;7.002;2023-07-22T09:15:57;20.90;99.90
20384;DHT22;46458;50.966;7.002;2023-07-22T09:18:29;21.10;99.90
20384;DHT22;46458;50.966;7.002;2023-07-22T09:20:58;21.20;99.90
20384;DHT22;46458;50.966;7.002;2023-07-22T09:23:34;21.20;99.90
20384;DHT22;46458;50.966;7.002;2023-07-22T09:26:09;21.20;99.90
20384;DHT22;46458;50.966;7.002;2023-07-22T09:28:49;21.00;99.90
20384;DHT22;46458;50.966;7.002;2023-07-22T09:31:18;21.00;99.90
20384;DHT22;46458;50.966;7.002;2023-07-22T09:33:50;20.90;99.90
20384;DHT22;46458;50.966;7.002;2023-07-22T09:36:20;20.70;99.90
20384;DHT22;46458;50.966;7.002;2023-07-22T09:38:59;20.80;99.90
20384;DHT22;46458;50.966;7.002;2023-07-22T09:41:29;20.90;99.90
20384;DHT22;46458;50.966;7.002;2023-07-22T09:44:03;21.10;99.90
20384;DHT22;46458;50.966;7.002;2023-07-22T09:46:32;21.30;99.90
20384;DHT22;46458;50.966;7.002;2023-07-22T09:49:07;21.50;99.90
20384;DHT22;46458;50.966;7.002;2023-07-22T09:51:38;21.80;99.90
20384;DHT22;46458;50.966;7.002;2023-07-22T09:54:07;21.80;99.90
20384;DHT22;46458;50.966;7.002;2023-07-22T09:56:44;21.70;99.90
20384;DHT22;46458;50.966;7.002;2023-07-22T09:59:14;21.40;99.90
20384;DHT22;46458;50.966;7.002;2023-07-22T10:01:44;21.30;99.90
20384;DHT22;46458;50.966;7.002;2023-07-22T10:04:21;21.50;99.90
20384;DHT22;46458;50.966;7.002;2023-07-22T10:06:52;21.50;99.90
20384;DHT22;46458;50.966;7.002;2023-07-22T10:09:23;21.60;99.90
20384;DHT22;46458;50.966;7.002;2023-07-22T10:11:54;21.70;99.90
20384;DHT22;46458;50.966;7.002;2023-07-22T10:14:23;22.10;99.90
20384;DHT22;46458;50.966;7.002;2023-07-22T10:16:53;22.20;99.90
20384;DHT22;46458;50.966;7.002;2023-07-22T10:19:25;22.40;99.90
20384;DHT22;46458;50.966;7.002;2023-07-22T10:21:54;22.80;99.90
20384;DHT22;46458;50.966;7.002;2023-07-22T10:24:23;22.80;99.90
20384;DHT22;46458;50.966;7.002;2023-07-22T10:26:52;22.70;99.90
20384;DHT22;46458;50.966;7.002;2023-07-22T10:29:22;22.90;99.90
20384;DHT22;46458;50.966;7.002;2023-07-22T10:31:53;23.10;99.90
20384;DHT22;46458;50.966;7.002;2023-07-22T10:34:27;23.00;99.90
20384;DHT22;46458;50.966;7.002;2023-07-22T10:36:56;22.80;99.90
20384;DHT22;46458;50.966;7.002;2023-07-22T10:39:26;23.00;99.90
20384;DHT22;46458;50.966;7.002;2023-07-22T10:42:00;23.20;99.40
20384;DHT22;46458;50.966;7.002;2023-07-22T10:44:31;23.00;99.90
20384;DHT22;46458;50.966;7.002;2023-07-22T10:47:00;22.90;99.90
20384;DHT22;46458;50.966;7.002;2023-07-22T10:49:45;22.90;99.50
20384;DHT22;46458;50.966;7.002;2023-07-22T10:52:14;22.80;99.40
20384;DHT22;46458;50.966;7.002;2023-07-22T10:54:45;22.80;99.90
20384;DHT22;46458;50.966;7.002;2023-07-22T10:57:24;23.10;99.00
20384;DHT22;46458;50.966;7.002;2023-07-22T10:59:55;23.10;99.30
20384;DHT22;46458;50.966;7.002;2023-07-22T11:02:25;23.30;99.20
20384;DHT22;46458;50.966;7.002;2023-07-22T11:04:59;23.30;99.40
20384;DHT22;46458;50.966;7.002;2023-07-22T11:07:33;23.50;99.20
20384;DHT22;46458;50.966;7.002;2023-07-22T11:10:14;23.80;97.70
20384;DHT22;46458;50.966;7.002;2023-07-22T11:12:44;23.80;97.60
20384;DHT22;46458;50.966;7.002;2023-07-22T11:15:15;23.70;98.10
20384;DHT22;46458;50.966;7.002;2023-07-22T11:17:48;24.30;98.60
20384;DHT22;46458;50.966;7.002;2023-07-22T11:20:21;24.50;96.40
20384;DHT22;46458;50.966;7.002;2023-07-22T11:22:50;24.30;96.90
20384;DHT22;46458;50.966;7.002;2023-07-22T11:25:20;24.20;95.30
20384;DHT22;46458;50.966;7.002;2023-07-22T11:27:49;24.30;96.50
20384;DHT22;46458;50.966;7.002;2023-07-22T11:30:18;24.30;95.10
20384;DHT22;46458;50.966;7.002;2023-07-22T11:32:47;23.80;96.00
20384;DHT22;46458;50.966;7.002;2023-07-22T11:35:21;23.90;97.50
20384;DHT22;46458;50.966;7.002;2023-07-22T11:37:51;24.10;96.00
20384;DHT22;46458;50.966;7.002;2023-07-22T11:40:33;24.00;95.00
20384;DHT22;46458;50.966;7.002;2023-07-22T11:43:02;24.10;95.80
20384;DHT22;46458;50.966;7.002;2023-07-22T11:45:38;24.20;95.20
20384;DHT22;46458;50.966;7.002;2023-07-22T11:48:09;23.90;95.40
20384;DHT22;46458;50.966;7.002;2023-07-22T11:50:41;23.90;95.50
20384;DHT22;46458;50.966;7.002;2023-07-22T11:53:16;24.00;95.00
20384;DHT22;46458;50.966;7.002;2023-07-22T11:55:45;24.40;94.60
20384;DHT22;46458;50.966;7.002;2023-07-22T11:58:14;24.60;94.30
20384;DHT22;46458;50.966;7.002;2023-07-22T12:00:43;24.90;93.70
20384;DHT22;46458;50.966;7.002;2023-07-22T12:03:15;24.90;93.10
20384;DHT22;46458;50.966;7.002;2023-07-22T12:05:47;24.80;93.30
20384;DHT22;46458;50.966;7.002;2023-07-22T12:08:16;24.60;93.90
20384;DHT22;46458;50.966;7.002;2023-07-22T12:10:56;24.50;94.40
20384;DHT22;46458;50.966;7.002;2023-07-22T12:13:25;24.20;94.10
20384;DHT22;46458;50.966;7.002;2023-07-22T12:16:00;24.30;93.90
20384;DHT22;46458;50.966;7.002;2023-07-22T12:18:41;24.50;94.30
20384;DHT22;46458;50.966;7.002;2023-07-22T12:21:13;24.60;93.80
20384;DHT22;46458;50.966;7.002;2023-07-22T12:23:42;24.60;93.60
20384;DHT22;46458;50.966;7.002;2023-07-22T12:26:11;24.60;94.10
20384;DHT22;46458;50.966;7.002;2023-07-22T12:28:40;24.80;94.60
20384;DHT22;46458;50.966;7.002;2023-07-22T12:31:09;24.80;93.10
20384;DHT22;46458;50.966;7.002;2023-07-22T12:33:38;25.20;93.40
20384;DHT22;46458;50.966;7.002;2023-07-22T12:36:07;25.50;91.30
20384;DHT22;46458;50.966;7.002;2023-07-22T12:38:40;25.40;91.40
20384;DHT22;46458;50.966;7.002;2023-07-22T12:41:09;25.30;91.30
20384;DHT22;46458;50.966;7.002;2023-07-22T12:43:37;25.10;91.50
20384;DHT22;46458;50.966;7.002;2023-07-22T12:46:06;25.20;91.40
20384;DHT22;46458;50.966;7.002;2023-07-22T12:48:35;25.10;90.50
20384;DHT22;46458;50.966;7.002;2023-07-22T12:51:04;25.10;90.50
20384;DHT22;46458;50.966;7.002;2023-07-22T12:53:40;25.20;90.60
20384;DHT22;46458;50.966;7.002;2023-07-22T12:56:09;25.60;90.90
20384;DHT22;46458;50.966;7.002;2023-07-22T12:58:40;25.80;89.00
20384;DHT22;46458;50.966;7.002;2023-07-22T13:01:09;25.80;88.80
20384;DHT22;46458;50.966;7.002;2023-07-22T13:03:38;26.30;88.40
20384;DHT22;46458;50.966;7.002;2023-07-22T13:06:07;26.60;89.30
20384;DHT22;46458;50.966;7.002;2023-07-22T13:08:36;26.50;89.00
20384;DHT22;46458;50.966;7.002;2023-07-22T13:11:07;27.30;87.20
20384;DHT22;46458;50.966;7.002;2023-07-22T13:13:36;27.90;86.70
20384;DHT22;46458;50.966;7.002;2023-07-22T13:16:05;28.10;84.70
20384;DHT22;46458;50.966;7.002;2023-07-22T13:18:34;26.90;85.30
20384;DHT22;46458;50.966;7.002;2023-07-22T13:21:03;26.60;86.00
20384;DHT22;46458;50.966;7.002;2023-07-22T13:23:32;26.70;83.00
20384;DHT22;46458;50.966;7.002;2023-07-22T13:26:06;26.50;85.40
20384;DHT22;46458;50.966;7.002;2023-07-22T13:28:35;26.80;83.50
20384;DHT22;46458;50.966;7.002;2023-07-22T13:31:04;26.70;85.00
20384;DHT22;46458;50.966;7.002;2023-07-22T13:33:33;27.20;84.00
20384;DHT22;46458;50.966;7.002;2023-07-22T13:36:02;27.00;83.20
20384;DHT22;46458;50.966;7.002;2023-07-22T13:38:31;27.40;84.30
20384;DHT22;46458;50.966;7.002;2023-07-22T13:40:59;27.80;83.80
20384;DHT22;46458;50.966;7.002;2023-07-22T13:43:31;27.80;82.70
20384;DHT22;46458;50.966;7.002;2023-07-22T13:45:59;27.60;84.20
20384;DHT22;46458;50.966;7.002;2023-07-22T13:48:33;28.00;83.40
20384;DHT22;46458;50.966;7.002;2023-07-22T13:51:04;28.90;82.10
20384;DHT22;46458;50.966;7.002;2023-07-22T13:53:33;29.30;78.70
20384;DHT22;46458;50.966;7.002;2023-07-22T13:56:02;29.70;78.90
20384;DHT22;46458;50.966;7.002;2023-07-22T13:58:39;29.20;77.90
20384;DHT22;46458;50.966;7.002;2023-07-22T14:01:08;29.50;78.10
20384;DHT22;46458;50.966;7.002;2023-07-22T14:03:39;31.50;77.30
20384;DHT22;46458;50.966;7.002;2023-07-22T14:06:08;31.70;74.30
20384;DHT22;46458;50.966;7.002;2023-07-22T14:08:37;31.40;73.40
20384;DHT22;46458;50.966;7.002;2023-07-22T14:11:09;32.40;71.30
20384;DHT22;46458;50.966;7.002;2023-07-22T14:13:40;32.50;70.70
20384;DHT22;46458;50.966;7.002;2023-07-22T14:16:09;31.70;70.50
20384;DHT22;46458;50.966;7.002;2023-07-22T14:18:38;31.70;70.00
20384;DHT22;46458;50.966;7.002;2023-07-22T14:21:07;32.10;69.90
20384;DHT22;46458;50.966;7.002;2023-07-22T14:23:36;32.50;69.10
20384;DHT22;46458;50.966;7.002;2023-07-22T14:26:05;33.70;68.30
20384;DHT22;46458;50.966;7.002;2023-07-22T14:28:34;34.60;67.00
20384;DHT22;46458;50.966;7.002;2023-07-22T14:31:08;34.10;65.20
20384;DHT22;46458;50.966;7.002;2023-07-22T14:33:37;34.00;65.80
20384;DHT22;46458;50.966;7.002;2023-07-22T14:36:06;34.30;64.70
20384;DHT22;46458;50.966;7.002;2023-07-22T14:38:38;34.40;63.80
20384;DHT22;46458;50.966;7.002;2023-07-22T14:41:07;35.70;61.60
20384;DHT22;46458;50.966;7.002;2023-07-22T14:43:36;35.40;61.90
20384;DHT22;46458;50.966;7.002;2023-07-22T14:46:08;34.40;62.60
20384;DHT22;46458;50.966;7.002;2023-07-22T14:48:37;33.40;64.40
20384;DHT22;46458;50.966;7.002;2023-07-22T14:51:06;33.90;64.00
20384;DHT22;46458;50.966;7.002;2023-07-22T14:53:35;34.40;63.50
20384;DHT22;46458;50.966;7.002;2023-07-22T14:56:04;34.40;62.80
20384;DHT22;46458;50.966;7.002;2023-07-22T14:58:33;35.40;61.30
20384;DHT22;46458;50.966;7.002;2023-07-22T15:01:02;36.20;60.00
20384;DHT22;46458;50.966;7.002;2023-07-22T15:03:37;35.00;60.60
20384;DHT22;46458;50.966;7.002;2023-07-22T15:06:12;34.30;62.00
20384;DHT22;46458;50.966;7.002;2023-07-22T15:08:41;33.00;62.80
20384;DHT22;46458;50.966;7.002;2023-07-22T15:11:10;32.70;62.60
20384;DHT22;46458;50.966;7.002;2023-07-22T15:13:39;32.30;62.90
20384;DHT22;46458;50.966;7.002;2023-07-22T15:16:10;31.30;65.10
20384;DHT22;46458;50.966;7.002;2023-07-22T15:18:42;31.20;65.40
20384;DHT22;46458;50.966;7.002;2023-07-22T15:21:12;30.00;67.00
20384;DHT22;46458;50.966;7.002;2023-07-22T15:23:41;30.40;66.80
20384;DHT22;46458;50.966;7.002;2023-07-22T15:26:09;29.80;66.60
20384;DHT22;46458;50.966;7.002;2023-07-22T15:28:38;30.50;66.20
20384;DHT22;46458;50.966;7.002;2023-07-22T15:31:08;31.70;65.70
20384;DHT22;46458;50.966;7.002;2023-07-22T15:33:36;31.00;65.50
20384;DHT22;46458;50.966;7.002;2023-07-22T15:36:08;29.60;66.80
20384;DHT22;46458;50.966;7.002;2023-07-22T15:38:39;28.50;69.30
20384;DHT22;46458;50.966;7.002;2023-07-22T15:41:08;28.60;70.20
20384;DHT22;46458;50.966;7.002;2023-07-22T15:43:37;28.80;69.60
20384;DHT22;46458;50.966;7.002;2023-07-22T15:46:09;29.50;69.60
20384;DHT22;46458;50.966;7.002;2023-07-22T15:48:37;30.20;68.10
20384;DHT22;46458;50.966;7.002;2023-07-22T15:51:09;30.30;68.80